Airfield :







YOU CAN JOIN US ON...

 
LOGIN :

Register | Disclaimer

   EN    FR    IT 

 









Legend :    VFR   Marginal VFR   IFR   Intensive IFR   Very Intensive IFR
Visi :
Ceiling :
>= 8 km
>= 3000ft
5 to 8 km
1000 to 3000 ft
1500m to 5 km
500 to 1000 ft
800 to 1500m
200 to 500 ft
< 800m
< 200 ft
Symbols :   Thunderstorms  Fog  Heavy snow  Heavy precipitations  Wind > 20 kt






- Airport Elevation : 787 ft
- IATA code : RUT


KRUT - Rutland - Southern Vermont Regional

CURRENT METAR :
  • 212256Z AUTO 11003KT 10SM CLR 10/08 A3014 RMK AO2 SLP206 T01000083 $

EXPIRED METARs :
  • 212156Z AUTO 00000KT 10SM CLR 13/08 A3014 RMK AO2 SLP203 T01330083 $
  • 212056Z AUTO 33005KT 10SM CLR 16/09 A3011 RMK AO2 SLP194 T01560089 53003 $

TAF KRUT
Valid from the 21 at 17:00 until the 22 at 18:00 UTC


211730Z 2117/2218 VRB05KT P6SM SKC
FM220400 12008KT P6SM FEW250
FM221500 13013G21KT P6SM BKN150



MET'MAP, your aeronautical weather chart ! - Copyright ORBIFLY December 2007 - Disclaimer

ORBIFLY MET'MAP TEAM :

Programming & Development : Alexandra Zaïnal
Concept & Development : Baudouin d'Aumeries
Co-Development & Prog : Marc-Olivier Méhu
Technical & hardware support : Manuel Goepfert

Contact : metmap@orbifly.com




SOURCES & CREDITS :

   NOAA